Time;durP1;ratioP1;P1;durP2;ratioP2;P2;SDS_P1;SDS_P2;PMS_P1;PMS_P2;Temp;Humidity;BMP_temperature;BMP_pressure;BME280_temperature;BME280_humidity;BME280_pressure;Samples;Min_cycle;Max_cycle;Signal;HPM_P1;HPM_P2
2022/04/16 00:01:12;;;;;;;14.47;11.67;;;;;;;11.39;100.00;100242.97;5047117;28;20213;-82
2022/04/16 00:03:41;;;;;;;16.30;12.67;;;;;;;11.32;100.00;100254.81;5046880;28;20199;-82
2022/04/16 00:06:12;;;;;;;17.53;12.80;;;;;;;11.30;100.00;100242.56;5051256;28;20197;-82
2022/04/16 00:08:42;;;;;;;15.23;11.97;;;;;;;11.47;100.00;100253.16;5047459;28;20201;-82
2022/04/16 00:11:11;;;;;;;16.17;12.60;;;;;;;11.32;100.00;100253.94;4992953;28;20314;-82
2022/04/16 00:13:41;;;;;;;15.80;11.50;;;;;;;11.35;100.00;100248.47;4990409;28;20206;-82
2022/04/16 00:16:10;;;;;;;16.97;12.73;;;;;;;11.37;100.00;100241.28;4985786;28;20736;-82
2022/04/16 00:18:40;;;;;;;16.30;12.80;;;;;;;11.39;100.00;100247.41;4985694;28;20727;-82
2022/04/16 00:21:13;;;;;;;19.30;13.03;;;;;;;11.36;100.00;100251.03;4984012;28;20223;-81
2022/04/16 00:23:43;;;;;;;17.67;13.50;;;;;;;11.60;100.00;100246.31;4990386;28;20195;-82
2022/04/16 00:26:12;;;;;;;16.57;12.97;;;;;;;11.65;100.00;100244.28;5007613;28;20202;-82
2022/04/16 00:28:42;;;;;;;16.27;12.53;;;;;;;11.70;100.00;100242.25;4988954;28;20203;-82
2022/04/16 00:31:12;;;;;;;16.50;12.77;;;;;;;11.66;100.00;100242.47;4942703;28;20198;-82
2022/04/16 00:33:41;;;;;;;17.40;13.17;;;;;;;11.72;100.00;100240.38;4990832;28;20795;-81
2022/04/16 00:36:15;;;;;;;16.60;12.53;;;;;;;11.53;100.00;100238.75;4990278;28;20191;-82
2022/04/16 00:38:50;;;;;;;17.37;12.67;;;;;;;11.58;100.00;100239.34;4989252;28;20282;-81
2022/04/16 00:41:22;;;;;;;17.60;13.00;;;;;;;11.53;100.00;100239.59;4971517;28;20396;-81
2022/04/16 00:43:54;;;;;;;17.10;13.03;;;;;;;11.55;100.00;100237.72;4873119;29;20199;-82
2022/04/16 00:46:25;;;;;;;16.50;12.90;;;;;;;11.55;100.00;100232.41;4872788;29;20235;-82
2022/04/16 00:48:55;;;;;;;19.57;13.70;;;;;;;11.60;100.00;100233.06;4871635;29;20203;-82
2022/04/16 00:51:28;;;;;;;17.03;13.20;;;;;;;11.55;100.00;100229.75;4840645;29;20257;-82
2022/04/16 00:53:57;;;;;;;19.53;13.90;;;;;;;11.68;100.00;100233.53;4853367;29;20410;-82
2022/04/16 00:56:27;;;;;;;17.83;13.53;;;;;;;11.59;100.00;100234.00;4856572;29;20196;-82
2022/04/16 00:58:58;;;;;;;16.57;13.53;;;;;;;11.44;100.00;100240.91;4852365;29;20274;-82
2022/04/16 01:01:29;;;;;;;19.03;13.47;;;;;;;11.40;100.00;100233.19;4893485;28;20226;-82
2022/04/16 01:03:59;;;;;;;18.37;14.20;;;;;;;11.30;100.00;100239.91;4966189;28;20203;-82
2022/04/16 01:06:42;;;;;;;20.83;13.47;;;;;;;11.44;100.00;100235.63;4971068;28;20300;-81
2022/04/16 01:09:12;;;;;;;20.27;14.13;;;;;;;11.54;100.00;100227.19;4976212;28;20222;-80
2022/04/16 01:11:41;;;;;;;19.97;13.73;;;;;;;11.55;100.00;100227.09;4987846;28;20199;-80
2022/04/16 01:14:17;;;;;;;18.87;13.50;;;;;;;11.60;100.00;100235.72;4987540;28;20303;-80
2022/04/16 01:16:46;;;;;;;16.23;12.53;;;;;;;11.57;100.00;100232.31;4931258;29;20245;-82
2022/04/16 01:19:15;;;;;;;17.37;13.37;;;;;;;11.61;100.00;100234.78;4912159;29;20201;-81
2022/04/16 01:21:48;;;;;;;21.80;14.93;;;;;;;11.40;100.00;100233.19;4948718;28;20302;-81
2022/04/16 01:24:19;;;;;;;17.87;13.77;;;;;;;11.61;100.00;100234.78;4983232;28;20210;-82
2022/04/16 01:26:48;;;;;;;16.83;13.33;;;;;;;11.68;100.00;100241.50;4983427;28;20199;-82
2022/04/16 01:29:22;;;;;;;17.30;13.70;;;;;;;11.80;100.00;100232.06;4982603;28;20198;-81
2022/04/16 01:31:53;;;;;;;18.07;13.90;;;;;;;11.80;100.00;100232.06;4985837;28;20223;-81
2022/04/16 01:34:25;;;;;;;18.83;13.40;;;;;;;11.81;100.00;100233.78;5003299;28;20272;-81
2022/04/16 01:37:02;;;;;;;18.57;13.40;;;;;;;11.88;100.00;100232.53;5050960;28;20204;-81
2022/04/16 01:39:33;;;;;;;17.73;13.70;;;;;;;11.79;100.00;100232.97;5043769;28;20193;-81
2022/04/16 01:42:02;;;;;;;17.43;12.90;;;;;;;11.83;100.00;100221.28;5052775;28;20219;-81
2022/04/16 01:44:33;;;;;;;20.53;13.23;;;;;;;11.72;100.00;100234.22;5049982;28;20258;-81
2022/04/16 01:47:03;;;;;;;16.97;13.13;;;;;;;11.85;100.00;100237.97;5051278;28;20193;-82
2022/04/16 01:49:41;;;;;;;17.03;13.17;;;;;;;11.57;100.00;100234.97;5007103;28;20202;-81
2022/04/16 01:52:10;;;;;;;17.53;13.00;;;;;;;11.66;100.00;100243.34;4948504;28;20210;-82
2022/04/16 01:54:44;;;;;;;20.50;13.97;;;;;;;11.53;100.00;100238.75;4870444;29;20229;-81
2022/04/16 01:57:18;;;;;;;18.13;13.83;;;;;;;11.65;100.00;100233.66;4818218;29;20225;-82
2022/04/16 01:59:47;;;;;;;18.00;13.00;;;;;;;11.49;100.00;100240.69;4819437;29;20676;-82
2022/04/16 02:02:16;;;;;;;16.80;13.03;;;;;;;11.49;100.00;100245.16;4817969;29;20229;-81
2022/04/16 02:04:45;;;;;;;18.77;13.17;;;;;;;11.52;100.00;100245.00;4815697;29;20288;-81
2022/04/16 02:07:16;;;;;;;17.97;12.90;;;;;;;11.54;100.00;100245.75;4784596;29;20214;-81
2022/04/16 02:09:48;;;;;;;19.23;13.60;;;;;;;11.37;100.00;100250.09;4748285;30;20207;-82
2022/04/16 02:12:17;;;;;;;19.53;14.33;;;;;;;11.36;100.00;100243.09;4751065;30;20704;-81
2022/04/16 02:14:46;;;;;;;19.77;14.00;;;;;;;11.26;100.00;100243.63;4763778;30;20218;-81
2022/04/16 02:17:15;;;;;;;18.43;14.20;;;;;;;11.25;100.00;100252.53;4761703;30;20226;-82
2022/04/16 02:19:49;;;;;;;20.53;14.17;;;;;;;11.18;100.00;100257.25;4784720;30;20236;-81
2022/04/16 02:22:18;;;;;;;18.83;13.80;;;;;;;11.22;100.00;100258.84;4784574;29;20230;-81
2022/04/16 02:24:52;;;;;;;21.30;14.97;;;;;;;11.35;100.00;100253.78;4843492;29;20200;-81
2022/04/16 02:27:20;;;;;;;21.33;15.17;;;;;;;11.38;100.00;100245.66;4912145;29;20198;-81
2022/04/16 02:29:50;;;;;;;18.27;14.43;;;;;;;11.21;100.00;100245.66;4856403;29;20263;-81
2022/04/16 02:32:18;;;;;;;19.33;14.63;;;;;;;11.40;100.00;100251.78;4847557;29;20207;-81
2022/04/16 02:34:51;;;;;;;20.83;15.37;;;;;;;11.40;100.00;100243.81;4861640;29;20234;-81
2022/04/16 02:37:20;;;;;;;19.87;14.53;;;;;;;11.27;100.00;100245.34;4864128;29;20195;-81
2022/04/16 02:39:51;;;;;;;19.50;14.37;;;;;;;11.33;100.00;100253.00;4916715;29;20252;-81
2022/04/16 02:42:22;;;;;;;20.87;15.40;;;;;;;11.35;100.00;100259.94;4929461;29;20342;-81
2022/04/16 02:47:39;;;;;;;21.27;15.63;;;;;;;11.08;100.00;100262.16;4964622;28;20681;-81
2022/04/16 02:50:09;;;;;;;21.20;16.00;;;;;;;11.31;100.00;100255.75;5010043;28;20233;-81
2022/04/16 02:52:41;;;;;;;21.57;15.00;;;;;;;11.29;100.00;100249.66;5004406;28;20201;-81
2022/04/16 02:55:15;;;;;;;21.97;15.50;;;;;;;11.04;100.00;100259.72;5005208;28;20202;-81
2022/04/16 02:57:44;;;;;;;22.80;16.50;;;;;;;11.08;100.00;100261.28;5009153;28;20217;-81
2022/04/16 03:00:15;;;;;;;23.27;16.30;;;;;;;11.15;100.00;100263.56;5037570;28;20197;-81
2022/04/16 03:02:45;;;;;;;22.43;16.20;;;;;;;11.12;100.00;100262.88;5056131;28;20289;-81
2022/04/16 03:05:16;;;;;;;20.27;15.73;;;;;;;11.20;100.00;100263.38;4993501;28;20195;-81
2022/04/16 03:07:46;;;;;;;21.17;16.40;;;;;;;11.29;100.00;100264.69;4991006;28;20243;-81
2022/04/16 03:10:19;;;;;;;22.70;16.33;;;;;;;11.16;100.00;100267.09;4992700;28;20229;-82
2022/04/16 03:12:51;;;;;;;23.87;17.17;;;;;;;11.04;100.00;100273.00;4984208;28;20199;-81
2022/04/16 03:18:10;;;;;;;23.30;17.10;;;;;;;11.21;100.00;100283.66;4988895;28;20207;-81
2022/04/16 03:20:39;;;;;;;24.10;17.20;;;;;;;11.09;100.00;100277.13;4990546;28;20278;-81
2022/04/16 03:23:09;;;;;;;23.80;17.13;;;;;;;11.22;100.00;100277.41;5017081;28;20213;-82
2022/04/16 03:25:43;;;;;;;22.17;16.50;;;;;;;11.24;100.00;100286.13;5048652;28;20200;-82
2022/04/16 03:28:12;;;;;;;23.77;16.37;;;;;;;11.04;100.00;100280.94;5010513;28;20201;-81
2022/04/16 03:30:45;;;;;;;21.77;17.23;;;;;;;11.23;100.00;100278.25;5007292;28;20203;-81
2022/04/16 03:33:14;;;;;;;23.27;16.90;;;;;;;11.09;100.00;100282.41;5007753;28;20207;-82
2022/04/16 03:35:45;;;;;;;23.00;16.83;;;;;;;11.01;100.00;100284.59;5005731;28;20650;-81
2022/04/16 03:38:16;;;;;;;22.67;17.10;;;;;;;11.25;100.00;100284.34;5004797;28;20365;-82
2022/04/16 03:40:48;;;;;;;20.13;14.70;;;;;;;11.26;100.00;100288.72;5007671;28;20270;-82
2022/04/16 03:43:20;;;;;;;16.80;11.33;;;;;;;11.06;100.00;100290.53;4949748;28;20224;-81
2022/04/16 03:45:49;;;;;;;15.43;11.10;;;;;;;10.94;100.00;100300.88;4912343;29;20305;-81
2022/04/16 03:48:20;;;;;;;13.60;10.73;;;;;;;10.80;100.00;100310.31;4909648;29;20201;-81
2022/04/16 03:50:52;;;;;;;14.40;10.53;;;;;;;10.78;100.00;100308.66;4915927;29;20234;-81
2022/04/16 03:53:23;;;;;;;14.33;9.40;;;;;;;10.49;100.00;100302.06;4923974;29;20208;-81
2022/04/16 04:01:30;;;;;;;10.03;8.20;;;;;;;10.28;100.00;100296.78;4973008;28;20242;-81
2022/04/16 04:03:59;;;;;;;9.10;7.37;;;;;;;10.26;100.00;100306.59;5014801;28;20210;-81
2022/04/16 04:06:28;;;;;;;9.70;7.70;;;;;;;10.27;100.00;100307.47;5024019;28;20198;-82
2022/04/16 04:08:59;;;;;;;8.87;7.53;;;;;;;10.13;100.00;100307.16;5009552;28;20194;-81
2022/04/16 04:11:29;;;;;;;8.43;7.10;;;;;;;10.35;100.00;100310.63;5007477;28;20206;-81
2022/04/16 04:13:59;;;;;;;9.83;7.40;;;;;;;10.41;100.00;100301.53;5007062;28;20198;-82
2022/04/16 04:16:28;;;;;;;9.83;7.70;;;;;;;10.42;100.00;100306.78;5003466;28;20206;-82
2022/04/16 04:18:57;;;;;;;9.33;7.50;;;;;;;10.50;100.00;100309.91;5005925;28;20206;-81
2022/04/16 04:21:28;;;;;;;7.90;7.10;;;;;;;10.70;100.00;100306.38;5006965;28;20198;-81
2022/04/16 04:23:56;;;;;;;8.23;6.80;;;;;;;10.40;100.00;100305.13;4974833;28;20249;-81
2022/04/16 04:26:27;;;;;;;7.90;6.43;;;;;;;10.44;100.00;100317.31;4973025;28;20251;-81
2022/04/16 04:28:58;;;;;;;8.53;6.77;;;;;;;10.49;100.00;100317.94;4932114;29;20201;-81
2022/04/16 04:31:26;;;;;;;8.47;6.90;;;;;;;10.42;100.00;100313.84;4909253;29;20216;-81
2022/04/16 04:33:58;;;;;;;9.50;6.70;;;;;;;10.35;100.00;100318.56;4910584;29;20225;-81
2022/04/16 04:36:28;;;;;;;7.87;6.43;;;;;;;10.38;100.00;100321.06;4916520;29;20198;-82
2022/04/16 04:38:59;;;;;;;7.97;6.60;;;;;;;10.22;100.00;100320.88;4914035;29;20246;-82
2022/04/16 04:41:30;;;;;;;8.63;6.43;;;;;;;10.24;100.00;100328.78;4900718;29;20202;-81
2022/04/16 04:44:04;;;;;;;8.60;6.63;;;;;;;10.09;100.00;100334.69;4884555;29;20221;-81
2022/04/16 04:46:33;;;;;;;7.47;6.50;;;;;;;10.20;100.00;100332.44;4940825;28;20247;-82
2022/04/16 04:49:02;;;;;;;7.87;6.60;;;;;;;10.09;100.00;100342.63;4978640;28;20225;-82
2022/04/16 04:51:30;;;;;;;7.87;6.87;;;;;;;10.04;100.00;100340.22;5004036;28;20282;-81
2022/04/16 04:54:03;;;;;;;7.97;6.93;;;;;;;10.07;100.00;100340.06;5018991;28;20205;-80
2022/04/16 04:56:33;;;;;;;8.93;7.33;;;;;;;9.85;100.00;100341.91;5025266;28;20206;-81
2022/04/16 04:59:07;;;;;;;7.97;6.77;;;;;;;9.89;100.00;100357.59;5027037;28;20192;-82
2022/04/16 05:01:40;;;;;;;9.73;7.77;;;;;;;9.90;100.00;100353.16;4952114;29;20203;-81
2022/04/16 05:04:08;;;;;;;8.83;7.93;;;;;;;9.86;100.00;100352.44;4928078;29;20288;-82
2022/04/16 05:06:38;;;;;;;8.53;7.07;;;;;;;10.03;100.00;100354.34;4913962;29;20202;-81
2022/04/16 05:09:11;;;;;;;10.83;7.70;;;;;;;10.03;100.00;100355.19;4910276;29;20285;-81
2022/04/16 05:11:42;;;;;;;8.90;8.00;;;;;;;10.15;100.00;100366.22;4911426;29;20271;-83
2022/04/16 05:14:15;;;;;;;8.43;6.83;;;;;;;10.00;100.00;100365.94;4877239;29;20203;-81
2022/04/16 05:16:47;;;;;;;8.93;7.30;;;;;;;9.82;100.00;100373.78;4873836;29;20659;-82
2022/04/16 05:19:16;;;;;;;9.33;7.20;;;;;;;9.82;100.00;100373.78;4881585;29;20202;-81
2022/04/16 05:21:46;;;;;;;9.10;7.73;;;;;;;9.65;100.00;100375.34;4921353;29;20210;-81
2022/04/16 05:24:17;;;;;;;9.50;7.90;;;;;;;9.61;100.00;100380.81;4958266;28;20232;-81
2022/04/16 05:26:47;;;;;;;10.07;8.27;;;;;;;9.70;100.00;100378.66;4984828;28;20199;-80
2022/04/16 05:29:20;;;;;;;12.77;9.00;;;;;;;9.63;100.00;100386.88;4980328;28;20214;-82
2022/04/16 05:31:48;;;;;;;9.80;8.57;;;;;;;9.71;100.00;100398.03;4996848;28;20202;-81
2022/04/16 05:34:21;;;;;;;13.43;9.53;;;;;;;9.88;100.00;100390.25;5026652;28;20189;-81
2022/04/16 05:36:52;;;;;;;11.73;9.40;;;;;;;9.67;100.00;100399.09;5030338;28;20249;-82
2022/04/16 05:39:22;;;;;;;12.53;9.80;;;;;;;9.60;100.00;100387.88;5028497;28;20213;-81
2022/04/16 05:41:51;;;;;;;12.47;9.60;;;;;;;9.63;100.00;100398.31;4933049;29;20299;-81
2022/04/16 05:44:22;;;;;;;14.50;10.47;;;;;;;9.64;100.00;100404.47;4948469;28;20267;-81
2022/04/16 05:46:52;;;;;;;13.00;10.07;;;;;;;9.60;100.00;100406.41;4969017;28;20219;-81
2022/04/16 05:49:20;;;;;;;12.60;10.37;;;;;;;9.73;100.00;100404.09;4968494;28;20196;-81
2022/04/16 05:51:50;;;;;;;13.43;10.27;;;;;;;9.73;100.00;100422.63;4966119;28;20243;-83
2022/04/16 05:54:20;;;;;;;13.53;10.57;;;;;;;9.58;100.00;100420.63;4963333;28;20211;-82
2022/04/16 05:56:49;;;;;;;13.43;10.53;;;;;;;9.46;100.00;100416.69;4967205;28;20204;-82
2022/04/16 05:59:25;;;;;;;14.70;10.67;;;;;;;9.50;100.00;100417.41;4971518;28;20199;-81
2022/04/16 06:01:54;;;;;;;12.13;10.23;;;;;;;9.56;100.00;100425.13;5005709;28;20201;-81
2022/04/16 06:04:23;;;;;;;14.73;10.47;;;;;;;9.37;100.00;100419.69;5005074;28;20237;-81
2022/04/16 06:06:51;;;;;;;15.47;10.23;;;;;;;9.66;100.00;100431.75;5004937;28;20666;-81
2022/04/16 06:09:21;;;;;;;12.37;9.73;;;;;;;9.53;100.00;100431.38;4970030;28;20247;-81
2022/04/16 06:11:52;;;;;;;11.20;8.93;;;;;;;9.57;100.00;100432.13;4968155;28;20675;-81
2022/04/16 06:14:25;;;;;;;12.00;8.77;;;;;;;9.54;100.00;100435.72;4971647;28;20196;-82
2022/04/16 06:16:55;;;;;;;12.47;9.30;;;;;;;9.66;100.00;100429.97;4975918;28;20200;-82
2022/04/16 06:19:26;;;;;;;11.80;8.50;;;;;;;9.78;100.00;100425.09;4960128;28;20199;-82
2022/04/16 06:21:55;;;;;;;10.77;8.40;;;;;;;9.76;100.00;100433.13;4912727;29;20217;-81
2022/04/16 06:24:26;;;;;;;11.80;8.40;;;;;;;9.70;100.00;100420.13;4817970;29;20231;-81
2022/04/16 06:26:55;;;;;;;10.43;8.07;;;;;;;9.96;100.00;100422.56;4859170;29;20212;-81
2022/04/16 06:29:27;;;;;;;11.63;8.27;;;;;;;10.08;100.00;100425.63;4858960;29;20773;-81
2022/04/16 06:31:56;;;;;;;10.63;8.13;;;;;;;10.33;100.00;100423.72;4860144;29;20207;-82
2022/04/16 06:34:25;;;;;;;11.67;9.00;;;;;;;10.26;100.00;100423.13;4870714;29;20207;-81
2022/04/16 06:36:53;;;;;;;10.43;8.07;;;;;;;10.27;100.00;100430.13;4872657;29;20202;-81
2022/04/16 06:39:27;;;;;;;11.50;8.27;;;;;;;10.45;100.00;100425.84;4843287;29;20200;-81
2022/04/16 06:41:57;;;;;;;10.70;8.03;;;;;;;10.16;100.00;100429.69;4847623;29;20661;-82
2022/04/16 06:44:27;;;;;;;10.67;7.63;;;;;;;10.07;100.00;100429.22;4877444;29;20835;-81
2022/04/16 06:46:59;;;;;;;10.53;7.57;;;;;;;10.28;100.00;100431.00;4874024;29;20411;-81
2022/04/16 06:49:27;;;;;;;12.60;9.70;;;;;;;10.07;100.00;100426.56;4875511;29;20210;-81
2022/04/16 06:51:57;;;;;;;10.83;7.67;;;;;;;10.30;100.00;100434.44;4844056;29;20287;-82
2022/04/16 06:54:28;;;;;;;10.80;7.70;;;;;;;9.95;100.00;100436.75;4847549;29;20204;-82
2022/04/16 06:56:59;;;;;;;10.10;7.40;;;;;;;10.16;100.00;100447.38;4816320;29;20212;-81
2022/04/16 06:59:33;;;;;;;10.47;7.20;;;;;;;10.13;100.00;100450.13;4824629;29;20213;-82
2022/04/16 07:02:02;;;;;;;10.17;7.53;;;;;;;9.96;100.00;100449.03;4823913;29;20209;-82
2022/04/16 07:04:40;;;;;;;11.50;7.60;;;;;;;10.35;100.00;100448.34;4817591;29;20316;-80
2022/04/16 07:07:11;;;;;;;10.13;6.90;;;;;;;10.46;100.00;100451.41;4849990;29;20294;-81
2022/04/16 07:09:41;;;;;;;10.57;6.20;;;;;;;10.77;100.00;100442.13;4860995;29;20283;-81
2022/04/16 07:12:11;;;;;;;8.53;6.13;;;;;;;10.81;100.00;100439.28;4789259;29;20210;-81
2022/04/16 07:14:44;;;;;;;9.37;6.67;;;;;;;10.85;100.00;100448.78;4790156;29;20213;-82
2022/04/16 07:17:18;;;;;;;9.00;6.03;;;;;;;10.96;100.00;100440.38;4806229;29;20204;-81
2022/04/16 07:19:48;;;;;;;9.80;5.80;;;;;;;11.26;100.00;100443.41;4836076;29;20254;-81
2022/04/16 07:22:19;;;;;;;9.37;5.70;;;;;;;11.15;100.00;100445.69;4839628;29;20200;-81
2022/04/16 07:24:49;;;;;;;7.50;5.20;;;;;;;11.26;100.00;100439.91;4844853;29;20704;-81
2022/04/16 07:27:18;;;;;;;8.43;5.80;;;;;;;10.86;100.00;100453.16;4816343;29;20220;-81
2022/04/16 07:29:58;;;;;;;6.60;4.97;;;;;;;10.96;100.00;100453.63;4886594;28;20195;-81
2022/04/16 07:32:28;;;;;;;8.13;5.20;;;;;;;10.64;100.00;100456.84;4991941;28;20202;-82
2022/04/16 07:34:59;;;;;;;8.00;5.00;;;;;;;10.73;100.00;100459.94;4992234;28;20282;-82
2022/04/16 07:37:31;;;;;;;9.70;5.40;;;;;;;10.55;100.00;100458.09;4879638;29;20291;-82
2022/04/16 07:40:00;;;;;;;7.90;6.13;;;;;;;10.40;100.00;100454.28;4873240;29;20203;-81
2022/04/16 07:42:33;;;;;;;8.47;5.77;;;;;;;10.40;100.00;100458.72;4877838;29;20199;-82
2022/04/16 07:45:03;;;;;;;8.20;5.47;;;;;;;10.45;100.00;100462.06;4870382;29;20246;-81
2022/04/16 07:47:34;;;;;;;8.90;5.50;;;;;;;10.83;100.00;100466.56;4879180;29;20191;-82
2022/04/16 07:50:04;;;;;;;8.73;5.50;;;;;;;10.78;100.00;100465.88;4871836;29;20217;-81
2022/04/16 07:52:32;;;;;;;7.30;5.43;;;;;;;10.76;100.00;100465.09;4796583;29;20217;-82
2022/04/16 07:55:03;;;;;;;9.10;5.30;;;;;;;10.72;100.00;100474.13;4812919;29;20684;-82
2022/04/16 07:57:33;;;;;;;6.70;5.00;;;;;;;10.84;100.00;100460.34;4845086;29;20215;-82
2022/04/16 08:00:08;;;;;;;7.60;5.27;;;;;;;11.08;100.00;100463.66;4875986;29;20214;-82
2022/04/16 08:02:36;;;;;;;6.23;4.87;;;;;;;11.09;100.00;100473.34;4878590;29;20210;-82
2022/04/16 08:05:14;;;;;;;5.93;4.20;;;;;;;11.18;100.00;100470.28;4872848;29;20238;-82
2022/04/16 08:07:50;;;;;;;7.23;4.70;;;;;;;11.10;100.00;100475.09;4847567;29;20349;-82
2022/04/16 08:10:20;;;;;;;6.37;4.33;;;;;;;10.98;100.00;100474.75;4886132;29;20197;-82
2022/04/16 08:12:50;;;;;;;7.57;4.73;;;;;;;11.20;100.00;100474.69;4913407;29;20240;-82
2022/04/16 08:15:27;;;;;;;6.10;4.63;;;;;;;11.35;100.00;100482.78;4913821;29;20266;-83
2022/04/16 08:17:56;;;;;;;5.43;4.10;;;;;;;11.53;100.00;100482.88;4877074;29;20210;-82
2022/04/16 08:20:26;;;;;;;7.37;4.43;;;;;;;11.28;100.00;100473.38;4882366;29;20214;-83
2022/04/16 08:23:05;;;;;;;9.17;5.73;;;;;;;11.43;100.00;100491.25;4948242;29;20204;-83
2022/04/16 08:25:45;;;;;;;9.80;6.93;;;;;;;11.65;100.00;100488.44;4947507;28;20220;-82
2022/04/16 08:28:14;;;;;;;7.23;4.77;;;;;;;11.93;100.00;100493.34;4952508;29;20207;-83
2022/04/16 08:30:45;;;;;;;9.87;5.23;;;;;;;11.88;100.00;100486.53;4950315;29;20652;-82
2022/04/16 08:33:15;;;;;;;7.33;5.00;;;;;;;11.94;100.00;100488.88;4947956;29;20208;-82
2022/04/16 08:35:46;;;;;;;8.00;5.37;;;;;;;11.71;100.00;100492.63;4980567;28;20201;-82
2022/04/16 08:38:15;;;;;;;9.73;5.70;;;;;;;11.85;100.00;100491.97;5049953;28;20205;-82
2022/04/16 08:40:50;;;;;;;6.93;5.47;;;;;;;12.20;100.00;100501.75;5047307;28;20197;-82
2022/04/16 08:43:18;;;;;;;10.73;7.17;;;;;;;12.34;100.00;100501.06;5025824;28;20225;-83
2022/04/16 08:45:53;;;;;;;9.83;7.87;;;;;;;12.19;100.00;100492.09;5025747;28;20233;-83
2022/04/16 08:48:25;;;;;;;6.97;4.87;;;;;;;12.28;100.00;100491.63;5023936;28;20204;-83
2022/04/16 08:50:55;;;;;;;7.63;4.97;;;;;;;12.02;100.00;100489.38;5025458;28;20202;-82
2022/04/16 08:53:24;;;;;;;7.60;4.90;;;;;;;11.94;100.00;100492.41;4953252;28;20231;-82
2022/04/16 08:55:53;;;;;;;8.60;5.00;;;;;;;12.02;100.00;100492.03;4952561;29;20204;-82
2022/04/16 08:58:21;;;;;;;7.27;4.93;;;;;;;11.91;100.00;100497.00;4953277;29;20201;-81
2022/04/16 09:00:53;;;;;;;6.37;4.80;;;;;;;11.85;100.00;100490.19;4951780;29;20196;-82
2022/04/16 09:03:22;;;;;;;7.93;5.60;;;;;;;12.08;100.00;100490.91;4945348;29;20208;-82
2022/04/16 09:05:56;;;;;;;6.33;4.73;;;;;;;11.92;100.00;100488.09;4946630;29;20707;-83
2022/04/16 09:08:34;;;;;;;6.87;5.00;;;;;;;12.24;100.00;100484.72;4949063;29;20223;-83
2022/04/16 09:11:10;;;;;;;4.73;3.70;;;;;;;12.42;100.00;100487.41;4947452;28;20207;-82
2022/04/16 09:13:42;;;;;;;7.10;4.10;;;;;;;12.39;99.92;100499.06;5050461;28;20204;-82
2022/04/16 09:16:20;;;;;;;6.20;3.90;;;;;;;12.55;94.24;100501.81;5047557;28;20632;-82
2022/04/16 09:18:50;;;;;;;5.67;3.50;;;;;;;12.90;93.25;100503.50;5050769;28;20204;-83
2022/04/16 09:21:21;;;;;;;5.83;3.73;;;;;;;12.59;84.79;100503.38;5044716;28;20357;-83
2022/04/16 09:23:52;;;;;;;4.97;3.23;;;;;;;12.85;76.30;100505.56;5048059;28;20185;-82
2022/04/16 09:26:34;;;;;;;4.03;2.90;;;;;;;12.58;71.62;100518.47;5049042;28;20255;-82
2022/04/16 09:29:07;;;;;;;6.60;3.17;;;;;;;12.54;70.95;100522.19;5050562;28;20197;-82
2022/04/16 09:31:40;;;;;;;3.70;2.57;;;;;;;12.61;70.87;100514.78;5046721;28;20254;-82
2022/04/16 09:34:21;;;;;;;4.37;2.20;;;;;;;12.77;65.67;100521.06;5055604;28;20763;-82
2022/04/16 09:36:56;;;;;;;3.57;1.80;;;;;;;13.14;60.73;100513.81;5046173;28;20674;-83
2022/04/16 09:39:33;;;;;;;4.13;1.70;;;;;;;13.31;57.46;100512.94;4956872;29;20294;-82
2022/04/16 09:42:03;;;;;;;5.30;1.90;;;;;;;13.36;53.17;100521.56;4952584;29;20201;-82
2022/04/16 09:44:32;;;;;;;2.03;1.43;;;;;;;13.08;50.19;100525.63;4953256;29;20450;-82
2022/04/16 09:47:05;;;;;;;1.70;1.20;;;;;;;13.15;49.32;100519.06;4951638;28;20228;-82
2022/04/16 09:49:38;;;;;;;1.93;1.30;;;;;;;13.51;46.59;100526.06;4949994;29;20207;-82
2022/04/16 09:52:12;;;;;;;2.63;1.60;;;;;;;13.75;48.48;100524.72;4951981;29;20395;-83
2022/04/16 09:54:42;;;;;;;2.60;1.40;;;;;;;13.68;46.01;100527.78;4936510;29;20208;-82
2022/04/16 09:57:14;;;;;;;2.50;1.30;;;;;;;14.00;46.68;100516.22;4927366;29;20703;-82
2022/04/16 09:59:47;;;;;;;3.10;1.90;;;;;;;13.60;49.58;100524.66;4915657;29;20646;-81
2022/04/16 10:02:28;;;;;;;2.20;1.40;;;;;;;14.07;48.12;100515.84;4916461;29;20202;-82
2022/04/16 10:04:57;;;;;;;2.30;1.20;;;;;;;14.42;46.30;100525.38;4911830;29;20193;-82
2022/04/16 10:07:30;;;;;;;1.73;1.20;;;;;;;14.16;45.75;100529.50;4881179;29;20225;-82
2022/04/16 10:10:03;;;;;;;1.97;1.00;;;;;;;13.64;46.17;100523.59;4901863;29;20197;-82
2022/04/16 10:15:27;;;;;;;1.10;1.00;;;;;;;14.03;42.61;100523.16;4996076;28;20199;-81
2022/04/16 10:17:58;;;;;;;2.93;1.20;;;;;;;14.75;40.88;100524.34;4987701;28;20275;-82
2022/04/16 10:20:29;;;;;;;1.90;1.00;;;;;;;14.70;40.91;100526.44;4986241;28;20206;-82
2022/04/16 10:23:03;;;;;;;2.50;1.10;;;;;;;14.82;40.04;100520.38;4958253;28;20214;-82
2022/04/16 10:25:38;;;;;;;1.70;1.10;;;;;;;14.97;38.89;100526.63;5003309;28;20205;-82
2022/04/16 10:28:12;;;;;;;1.77;0.80;;;;;;;15.06;37.64;100526.06;5012017;28;20206;-82
2022/04/16 10:30:50;;;;;;;1.83;1.07;;;;;;;15.23;37.60;100528.53;4936346;29;20203;-82
2022/04/16 10:33:22;;;;;;;6.53;1.17;;;;;;;15.29;36.96;100528.19;4935198;29;20205;-82
2022/04/16 10:35:56;;;;;;;1.93;0.90;;;;;;;15.86;36.06;100524.66;4917880;29;20280;-82
2022/04/16 10:38:34;;;;;;;2.27;1.00;;;;;;;16.18;34.62;100512.72;4911422;29;20206;-82
2022/04/16 10:41:10;;;;;;;1.67;1.17;;;;;;;15.66;35.22;100517.91;4914124;29;20245;-83
2022/04/16 10:43:59;;;;;;;2.43;0.97;;;;;;;15.58;33.76;100522.84;4914776;29;20206;-82
2022/04/16 10:46:43;;;;;;;1.60;0.80;;;;;;;15.43;34.16;100516.63;4902445;29;20230;-83
2022/04/16 10:49:18;;;;;;;2.50;1.07;;;;;;;15.53;35.09;100511.56;4928549;29;20216;-82
2022/04/16 10:51:50;;;;;;;2.70;0.90;;;;;;;15.73;34.05;100521.91;4937115;29;20200;-83
2022/04/16 10:54:34;;;;;;;1.97;0.97;;;;;;;15.74;34.66;100515.63;4961452;28;20307;-83
2022/04/16 10:57:12;;;;;;;1.30;0.80;;;;;;;15.54;32.64;100514.19;4983576;28;20211;-82
2022/04/16 10:59:45;;;;;;;2.23;0.83;;;;;;;15.34;32.21;100526.06;4988031;28;20217;-82
2022/04/16 11:02:19;;;;;;;2.20;1.10;;;;;;;15.39;31.41;100521.31;4985959;28;20203;-82
2022/04/16 11:05:00;;;;;;;1.40;0.70;;;;;;;15.82;31.02;100536.47;4986513;28;20202;-82
2022/04/16 11:07:36;;;;;;;0.93;0.80;;;;;;;15.78;31.26;100526.97;4988136;28;20223;-82
2022/04/16 11:10:07;;;;;;;1.87;1.00;;;;;;;15.64;31.77;100522.50;4988098;28;20206;-83
2022/04/16 11:12:38;;;;;;;1.53;0.80;;;;;;;16.20;32.18;100512.63;4987277;28;20230;-83
2022/04/16 11:15:14;;;;;;;1.53;0.97;;;;;;;16.91;31.97;100520.38;5045158;28;20200;-82
2022/04/16 11:17:42;;;;;;;1.33;0.80;;;;;;;16.81;30.90;100517.47;5019539;28;20199;-82
2022/04/16 11:20:14;;;;;;;1.30;0.90;;;;;;;16.60;30.01;100522.41;5047299;28;20201;-83
2022/04/16 11:22:48;;;;;;;3.57;0.70;;;;;;;16.41;30.71;100524.59;5030684;28;20663;-83
2022/04/16 11:25:17;;;;;;;1.37;0.73;;;;;;;15.99;28.91;100523.75;5051772;28;20199;-83
2022/04/16 11:36:27;;;;;;;0.60;0.60;;;;;;;16.57;27.72;100506.53;4990596;28;20494;-82
2022/04/16 11:38:58;;;;;;;2.30;0.90;;;;;;;16.15;28.24;100499.56;4981271;28;20203;-82
2022/04/16 11:41:28;;;;;;;2.03;0.70;;;;;;;16.33;29.21;100494.84;5007700;28;20272;-82
2022/04/16 11:43:58;;;;;;;1.87;0.70;;;;;;;16.41;29.00;100497.84;5009144;28;20289;-83
2022/04/16 11:46:27;;;;;;;1.70;0.80;;;;;;;16.77;28.38;100502.56;5004288;28;20199;-83
2022/04/16 11:49:00;;;;;;;1.23;0.87;;;;;;;16.86;28.37;100509.09;5011565;28;20230;-82
2022/04/16 11:51:37;;;;;;;1.50;0.87;;;;;;;16.49;27.74;100510.69;5010551;28;20202;-82
2022/04/16 11:54:08;;;;;;;1.17;0.83;;;;;;;16.98;27.07;100507.41;4932831;29;20205;-83
2022/04/16 11:56:38;;;;;;;1.20;0.70;;;;;;;16.98;27.92;100510.94;4931435;29;20221;-83